sensor_id;sensor_type;location;lat;lon;timestamp;P1;durP1;ratioP1;P2;durP2;ratioP2
635;SDS011;302;50.206;8.196;2023-05-07T00:01:07;2.47;;;2.28;;
635;SDS011;302;50.206;8.196;2023-05-07T00:03:33;2.30;;;2.20;;
635;SDS011;302;50.206;8.196;2023-05-07T00:05:58;2.70;;;2.50;;
635;SDS011;302;50.206;8.196;2023-05-07T00:08:23;2.20;;;2.10;;
635;SDS011;302;50.206;8.196;2023-05-07T00:10:48;2.47;;;2.27;;
635;SDS011;302;50.206;8.196;2023-05-07T00:13:14;2.47;;;2.30;;
635;SDS011;302;50.206;8.196;2023-05-07T00:15:39;2.40;;;2.20;;
635;SDS011;302;50.206;8.196;2023-05-07T00:18:04;2.63;;;2.43;;
635;SDS011;302;50.206;8.196;2023-05-07T00:20:30;2.63;;;2.43;;
635;SDS011;302;50.206;8.196;2023-05-07T00:22:55;2.40;;;2.30;;
635;SDS011;302;50.206;8.196;2023-05-07T00:25:20;2.60;;;2.40;;
635;SDS011;302;50.206;8.196;2023-05-07T00:27:45;2.50;;;2.30;;
635;SDS011;302;50.206;8.196;2023-05-07T00:30:11;2.40;;;2.20;;
635;SDS011;302;50.206;8.196;2023-05-07T00:32:36;2.43;;;2.23;;
635;SDS011;302;50.206;8.196;2023-05-07T00:35:01;2.47;;;2.27;;
635;SDS011;302;50.206;8.196;2023-05-07T00:37:27;2.57;;;2.37;;
635;SDS011;302;50.206;8.196;2023-05-07T00:39:52;2.60;;;2.33;;
635;SDS011;302;50.206;8.196;2023-05-07T00:42:17;2.87;;;2.53;;
635;SDS011;302;50.206;8.196;2023-05-07T00:44:43;2.27;;;1.93;;
635;SDS011;302;50.206;8.196;2023-05-07T00:47:08;2.70;;;2.50;;
635;SDS011;302;50.206;8.196;2023-05-07T00:49:43;2.23;;;2.13;;
635;SDS011;302;50.206;8.196;2023-05-07T00:52:09;2.67;;;2.47;;
635;SDS011;302;50.206;8.196;2023-05-07T00:54:35;2.70;;;2.53;;
635;SDS011;302;50.206;8.196;2023-05-07T00:57:01;2.20;;;2.00;;
635;SDS011;302;50.206;8.196;2023-05-07T00:59:27;2.63;;;2.43;;
635;SDS011;302;50.206;8.196;2023-05-07T01:01:52;2.20;;;2.00;;
635;SDS011;302;50.206;8.196;2023-05-07T01:04:17;1.95;;;1.75;;
635;SDS011;302;50.206;8.196;2023-05-07T01:06:42;2.37;;;2.17;;
635;SDS011;302;50.206;8.196;2023-05-07T01:09:08;2.45;;;2.25;;
635;SDS011;302;50.206;8.196;2023-05-07T01:11:34;2.20;;;2.00;;
635;SDS011;302;50.206;8.196;2023-05-07T01:14:00;2.17;;;2.05;;
635;SDS011;302;50.206;8.196;2023-05-07T01:16:25;2.50;;;2.30;;
635;SDS011;302;50.206;8.196;2023-05-07T01:18:50;2.33;;;2.23;;
635;SDS011;302;50.206;8.196;2023-05-07T01:21:15;2.13;;;1.93;;
635;SDS011;302;50.206;8.196;2023-05-07T01:23:42;2.45;;;2.25;;
635;SDS011;302;50.206;8.196;2023-05-07T01:26:08;3.53;;;3.33;;
635;SDS011;302;50.206;8.196;2023-05-07T01:28:33;3.20;;;3.00;;
635;SDS011;302;50.206;8.196;2023-05-07T01:31:00;2.97;;;2.78;;
635;SDS011;302;50.206;8.196;2023-05-07T01:33:26;3.65;;;3.35;;
635;SDS011;302;50.206;8.196;2023-05-07T01:35:53;3.60;;;3.30;;
635;SDS011;302;50.206;8.196;2023-05-07T01:38:19;2.60;;;2.40;;
635;SDS011;302;50.206;8.196;2023-05-07T01:40:45;3.35;;;2.40;;
635;SDS011;302;50.206;8.196;2023-05-07T01:43:10;2.30;;;2.10;;
635;SDS011;302;50.206;8.196;2023-05-07T01:45:35;3.10;;;2.10;;
635;SDS011;302;50.206;8.196;2023-05-07T01:48:01;2.00;;;1.90;;
635;SDS011;302;50.206;8.196;2023-05-07T01:50:27;1.80;;;1.70;;
635;SDS011;302;50.206;8.196;2023-05-07T01:52:52;1.93;;;1.80;;
635;SDS011;302;50.206;8.196;2023-05-07T01:55:17;2.58;;;2.38;;
635;SDS011;302;50.206;8.196;2023-05-07T01:57:43;2.10;;;1.90;;
635;SDS011;302;50.206;8.196;2023-05-07T02:00:08;2.40;;;2.20;;
635;SDS011;302;50.206;8.196;2023-05-07T02:02:34;2.60;;;2.40;;
635;SDS011;302;50.206;8.196;2023-05-07T02:04:59;13.37;;;9.80;;
635;SDS011;302;50.206;8.196;2023-05-07T02:07:24;13.40;;;10.53;;
635;SDS011;302;50.206;8.196;2023-05-07T02:09:49;11.70;;;9.60;;
635;SDS011;302;50.206;8.196;2023-05-07T02:12:14;10.73;;;7.87;;
635;SDS011;302;50.206;8.196;2023-05-07T02:14:40;5.50;;;4.40;;
635;SDS011;302;50.206;8.196;2023-05-07T02:17:05;2.75;;;2.55;;
635;SDS011;302;50.206;8.196;2023-05-07T02:19:30;2.63;;;2.43;;
635;SDS011;302;50.206;8.196;2023-05-07T02:21:56;2.45;;;2.25;;
635;SDS011;302;50.206;8.196;2023-05-07T02:24:21;3.13;;;2.83;;
635;SDS011;302;50.206;8.196;2023-05-07T02:26:46;3.23;;;2.80;;
635;SDS011;302;50.206;8.196;2023-05-07T02:29:11;2.63;;;2.43;;
635;SDS011;302;50.206;8.196;2023-05-07T02:31:36;3.00;;;2.70;;
635;SDS011;302;50.206;8.196;2023-05-07T02:34:01;2.20;;;2.00;;
635;SDS011;302;50.206;8.196;2023-05-07T02:36:27;2.50;;;2.30;;
635;SDS011;302;50.206;8.196;2023-05-07T02:38:52;2.87;;;2.10;;
635;SDS011;302;50.206;8.196;2023-05-07T02:41:17;1.98;;;1.88;;
635;SDS011;302;50.206;8.196;2023-05-07T02:43:42;2.20;;;2.00;;
635;SDS011;302;50.206;8.196;2023-05-07T02:46:08;2.20;;;2.08;;
635;SDS011;302;50.206;8.196;2023-05-07T02:48:33;3.17;;;2.90;;
635;SDS011;302;50.206;8.196;2023-05-07T02:50:58;2.70;;;2.50;;
635;SDS011;302;50.206;8.196;2023-05-07T02:53:24;3.47;;;3.17;;
635;SDS011;302;50.206;8.196;2023-05-07T02:55:55;2.95;;;2.75;;
635;SDS011;302;50.206;8.196;2023-05-07T02:58:21;3.80;;;3.50;;
635;SDS011;302;50.206;8.196;2023-05-07T03:00:46;3.87;;;3.57;;
635;SDS011;302;50.206;8.196;2023-05-07T03:03:11;5.10;;;2.83;;
635;SDS011;302;50.206;8.196;2023-05-07T03:05:36;3.30;;;3.10;;
635;SDS011;302;50.206;8.196;2023-05-07T03:08:02;2.97;;;2.77;;
635;SDS011;302;50.206;8.196;2023-05-07T03:10:27;3.10;;;2.90;;
635;SDS011;302;50.206;8.196;2023-05-07T03:12:52;3.13;;;2.80;;
635;SDS011;302;50.206;8.196;2023-05-07T03:15:18;3.28;;;3.08;;
635;SDS011;302;50.206;8.196;2023-05-07T03:17:43;3.40;;;3.10;;
635;SDS011;302;50.206;8.196;2023-05-07T03:20:08;2.75;;;2.55;;
635;SDS011;302;50.206;8.196;2023-05-07T03:22:34;2.22;;;2.03;;
635;SDS011;302;50.206;8.196;2023-05-07T03:24:59;2.33;;;2.13;;
635;SDS011;302;50.206;8.196;2023-05-07T03:27:24;1.97;;;1.80;;
635;SDS011;302;50.206;8.196;2023-05-07T03:29:50;1.88;;;1.77;;
635;SDS011;302;50.206;8.196;2023-05-07T03:32:15;2.40;;;2.20;;
635;SDS011;302;50.206;8.196;2023-05-07T03:34:40;2.20;;;2.10;;
635;SDS011;302;50.206;8.196;2023-05-07T03:37:05;2.10;;;1.90;;
635;SDS011;302;50.206;8.196;2023-05-07T03:39:30;4.70;;;2.90;;
635;SDS011;302;50.206;8.196;2023-05-07T03:41:57;2.20;;;2.00;;
635;SDS011;302;50.206;8.196;2023-05-07T03:44:22;2.33;;;2.00;;
635;SDS011;302;50.206;8.196;2023-05-07T03:46:47;2.00;;;1.90;;
635;SDS011;302;50.206;8.196;2023-05-07T03:49:12;2.33;;;2.17;;
635;SDS011;302;50.206;8.196;2023-05-07T03:51:37;3.15;;;2.95;;
635;SDS011;302;50.206;8.196;2023-05-07T03:54:03;2.73;;;2.50;;
635;SDS011;302;50.206;8.196;2023-05-07T03:56:28;2.20;;;2.03;;
635;SDS011;302;50.206;8.196;2023-05-07T03:58:53;2.40;;;2.20;;
635;SDS011;302;50.206;8.196;2023-05-07T04:01:18;2.10;;;1.50;;
635;SDS011;302;50.206;8.196;2023-05-07T04:03:43;2.67;;;1.80;;
635;SDS011;302;50.206;8.196;2023-05-07T04:06:08;1.90;;;1.80;;
635;SDS011;302;50.206;8.196;2023-05-07T04:08:34;1.70;;;1.60;;
635;SDS011;302;50.206;8.196;2023-05-07T04:10:59;2.10;;;2.00;;
635;SDS011;302;50.206;8.196;2023-05-07T04:13:24;1.97;;;1.87;;
635;SDS011;302;50.206;8.196;2023-05-07T04:15:50;1.80;;;1.70;;
635;SDS011;302;50.206;8.196;2023-05-07T04:18:15;2.20;;;2.10;;
635;SDS011;302;50.206;8.196;2023-05-07T04:20:40;2.70;;;2.50;;
635;SDS011;302;50.206;8.196;2023-05-07T04:23:05;2.83;;;2.63;;
635;SDS011;302;50.206;8.196;2023-05-07T04:25:30;3.28;;;2.97;;
635;SDS011;302;50.206;8.196;2023-05-07T04:27:56;2.90;;;2.70;;
635;SDS011;302;50.206;8.196;2023-05-07T04:30:21;3.00;;;2.80;;
635;SDS011;302;50.206;8.196;2023-05-07T04:32:46;3.87;;;2.50;;
635;SDS011;302;50.206;8.196;2023-05-07T04:35:12;3.13;;;2.78;;
635;SDS011;302;50.206;8.196;2023-05-07T04:37:38;3.22;;;2.95;;
635;SDS011;302;50.206;8.196;2023-05-07T04:40:03;2.60;;;2.40;;
635;SDS011;302;50.206;8.196;2023-05-07T04:42:28;2.40;;;2.20;;
635;SDS011;302;50.206;8.196;2023-05-07T04:44:53;2.30;;;2.20;;
635;SDS011;302;50.206;8.196;2023-05-07T04:47:19;2.50;;;2.30;;
635;SDS011;302;50.206;8.196;2023-05-07T04:49:44;1.90;;;1.80;;
635;SDS011;302;50.206;8.196;2023-05-07T04:52:09;2.30;;;2.10;;
635;SDS011;302;50.206;8.196;2023-05-07T04:54:34;2.83;;;2.40;;
635;SDS011;302;50.206;8.196;2023-05-07T04:57:00;2.23;;;2.07;;
635;SDS011;302;50.206;8.196;2023-05-07T04:59:25;2.42;;;2.10;;
635;SDS011;302;50.206;8.196;2023-05-07T05:01:50;2.83;;;2.25;;
635;SDS011;302;50.206;8.196;2023-05-07T05:04:15;2.38;;;2.17;;
635;SDS011;302;50.206;8.196;2023-05-07T05:06:40;2.20;;;2.00;;
635;SDS011;302;50.206;8.196;2023-05-07T05:09:06;2.27;;;2.17;;
635;SDS011;302;50.206;8.196;2023-05-07T05:11:31;2.57;;;2.27;;
635;SDS011;302;50.206;8.196;2023-05-07T05:13:58;3.17;;;2.50;;
635;SDS011;302;50.206;8.196;2023-05-07T05:16:24;2.80;;;2.60;;
635;SDS011;302;50.206;8.196;2023-05-07T05:18:49;3.15;;;2.85;;
635;SDS011;302;50.206;8.196;2023-05-07T05:21:14;2.17;;;2.07;;
635;SDS011;302;50.206;8.196;2023-05-07T05:23:39;2.73;;;2.20;;
635;SDS011;302;50.206;8.196;2023-05-07T05:26:04;2.93;;;2.73;;
635;SDS011;302;50.206;8.196;2023-05-07T05:28:30;8.13;;;4.72;;
635;SDS011;302;50.206;8.196;2023-05-07T05:30:55;3.57;;;3.37;;
635;SDS011;302;50.206;8.196;2023-05-07T05:33:20;3.38;;;2.90;;
635;SDS011;302;50.206;8.196;2023-05-07T05:35:45;3.13;;;2.92;;
635;SDS011;302;50.206;8.196;2023-05-07T05:38:10;3.07;;;2.87;;
635;SDS011;302;50.206;8.196;2023-05-07T05:40:35;3.43;;;3.13;;
635;SDS011;302;50.206;8.196;2023-05-07T05:43:00;3.20;;;3.00;;
635;SDS011;302;50.206;8.196;2023-05-07T05:45:26;2.85;;;2.65;;
635;SDS011;302;50.206;8.196;2023-05-07T05:47:51;2.85;;;2.65;;
635;SDS011;302;50.206;8.196;2023-05-07T05:50:16;3.60;;;3.30;;
635;SDS011;302;50.206;8.196;2023-05-07T05:52:41;2.90;;;2.70;;
635;SDS011;302;50.206;8.196;2023-05-07T05:55:07;2.80;;;2.60;;
635;SDS011;302;50.206;8.196;2023-05-07T05:57:32;2.57;;;2.47;;
635;SDS011;302;50.206;8.196;2023-05-07T05:59:57;3.03;;;2.83;;
635;SDS011;302;50.206;8.196;2023-05-07T06:02:22;2.87;;;2.67;;
635;SDS011;302;50.206;8.196;2023-05-07T06:04:48;3.00;;;2.80;;
635;SDS011;302;50.206;8.196;2023-05-07T06:07:13;2.83;;;2.63;;
635;SDS011;302;50.206;8.196;2023-05-07T06:09:38;2.80;;;2.60;;
635;SDS011;302;50.206;8.196;2023-05-07T06:12:03;2.95;;;2.75;;
635;SDS011;302;50.206;8.196;2023-05-07T06:14:28;2.90;;;2.70;;
635;SDS011;302;50.206;8.196;2023-05-07T06:16:53;4.10;;;3.70;;
635;SDS011;302;50.206;8.196;2023-05-07T06:19:19;3.92;;;3.63;;
635;SDS011;302;50.206;8.196;2023-05-07T06:21:48;3.63;;;3.42;;
635;SDS011;302;50.206;8.196;2023-05-07T06:24:13;3.20;;;3.00;;
635;SDS011;302;50.206;8.196;2023-05-07T06:26:38;3.20;;;3.00;;
635;SDS011;302;50.206;8.196;2023-05-07T06:29:03;3.60;;;3.30;;
635;SDS011;302;50.206;8.196;2023-05-07T06:31:29;2.92;;;2.72;;
635;SDS011;302;50.206;8.196;2023-05-07T06:33:55;2.90;;;2.70;;
635;SDS011;302;50.206;8.196;2023-05-07T06:36:21;2.97;;;2.77;;
635;SDS011;302;50.206;8.196;2023-05-07T06:38:46;4.53;;;2.42;;
635;SDS011;302;50.206;8.196;2023-05-07T06:41:11;2.03;;;1.87;;
635;SDS011;302;50.206;8.196;2023-05-07T06:43:36;2.13;;;2.03;;
635;SDS011;302;50.206;8.196;2023-05-07T06:46:01;1.97;;;1.87;;
635;SDS011;302;50.206;8.196;2023-05-07T06:48:26;1.92;;;1.83;;
635;SDS011;302;50.206;8.196;2023-05-07T06:50:51;2.25;;;2.15;;
635;SDS011;302;50.206;8.196;2023-05-07T06:53:17;2.70;;;2.50;;
635;SDS011;302;50.206;8.196;2023-05-07T06:55:43;2.50;;;2.30;;
635;SDS011;302;50.206;8.196;2023-05-07T06:58:08;2.08;;;1.98;;
635;SDS011;302;50.206;8.196;2023-05-07T07:00:33;2.00;;;1.90;;
635;SDS011;302;50.206;8.196;2023-05-07T07:02:58;2.00;;;1.90;;
635;SDS011;302;50.206;8.196;2023-05-07T07:05:25;2.00;;;1.90;;
635;SDS011;302;50.206;8.196;2023-05-07T07:07:50;2.25;;;2.15;;
635;SDS011;302;50.206;8.196;2023-05-07T07:10:20;2.10;;;2.00;;
635;SDS011;302;50.206;8.196;2023-05-07T07:12:46;2.28;;;2.17;;
635;SDS011;302;50.206;8.196;2023-05-07T07:15:11;2.30;;;1.87;;
635;SDS011;302;50.206;8.196;2023-05-07T07:17:36;2.40;;;2.20;;
635;SDS011;302;50.206;8.196;2023-05-07T07:20:01;1.93;;;1.83;;
635;SDS011;302;50.206;8.196;2023-05-07T07:22:27;2.08;;;1.95;;
635;SDS011;302;50.206;8.196;2023-05-07T07:24:52;1.65;;;1.55;;
635;SDS011;302;50.206;8.196;2023-05-07T07:27:18;2.30;;;2.20;;
635;SDS011;302;50.206;8.196;2023-05-07T07:29:43;2.17;;;2.08;;
635;SDS011;302;50.206;8.196;2023-05-07T07:32:08;2.20;;;2.10;;
635;SDS011;302;50.206;8.196;2023-05-07T07:34:33;3.35;;;2.22;;
635;SDS011;302;50.206;8.196;2023-05-07T07:36:58;1.83;;;1.73;;
635;SDS011;302;50.206;8.196;2023-05-07T07:39:23;2.80;;;2.60;;
635;SDS011;302;50.206;8.196;2023-05-07T07:41:48;2.20;;;2.00;;
635;SDS011;302;50.206;8.196;2023-05-07T07:44:13;2.70;;;2.07;;
635;SDS011;302;50.206;8.196;2023-05-07T07:46:39;1.90;;;1.80;;
635;SDS011;302;50.206;8.196;2023-05-07T07:49:04;2.00;;;1.90;;
635;SDS011;302;50.206;8.196;2023-05-07T07:51:29;2.05;;;1.95;;
635;SDS011;302;50.206;8.196;2023-05-07T07:53:55;2.30;;;2.10;;
635;SDS011;302;50.206;8.196;2023-05-07T07:56:22;2.28;;;2.08;;
635;SDS011;302;50.206;8.196;2023-05-07T07:58:47;1.80;;;1.70;;
635;SDS011;302;50.206;8.196;2023-05-07T08:01:12;2.20;;;2.03;;
635;SDS011;302;50.206;8.196;2023-05-07T08:03:38;2.03;;;1.93;;
635;SDS011;302;50.206;8.196;2023-05-07T08:06:03;2.20;;;2.10;;
635;SDS011;302;50.206;8.196;2023-05-07T08:08:28;2.23;;;2.13;;
635;SDS011;302;50.206;8.196;2023-05-07T08:10:53;2.10;;;2.00;;
635;SDS011;302;50.206;8.196;2023-05-07T08:13:19;2.00;;;1.80;;
635;SDS011;302;50.206;8.196;2023-05-07T08:15:44;2.00;;;1.90;;
635;SDS011;302;50.206;8.196;2023-05-07T08:18:09;2.47;;;2.33;;
635;SDS011;302;50.206;8.196;2023-05-07T08:20:34;2.63;;;2.43;;
635;SDS011;302;50.206;8.196;2023-05-07T08:23:04;2.00;;;1.90;;
635;SDS011;302;50.206;8.196;2023-05-07T08:25:29;2.08;;;1.98;;
635;SDS011;302;50.206;8.196;2023-05-07T08:27:54;1.90;;;1.80;;
635;SDS011;302;50.206;8.196;2023-05-07T08:30:19;1.97;;;1.87;;
635;SDS011;302;50.206;8.196;2023-05-07T08:32:44;2.30;;;2.10;;
635;SDS011;302;50.206;8.196;2023-05-07T08:35:10;2.47;;;2.27;;
635;SDS011;302;50.206;8.196;2023-05-07T08:37:35;2.10;;;1.90;;
635;SDS011;302;50.206;8.196;2023-05-07T08:40:00;2.40;;;2.30;;
635;SDS011;302;50.206;8.196;2023-05-07T08:42:25;2.17;;;2.08;;
635;SDS011;302;50.206;8.196;2023-05-07T08:44:51;2.47;;;2.30;;
635;SDS011;302;50.206;8.196;2023-05-07T08:47:20;2.42;;;2.33;;
635;SDS011;302;50.206;8.196;2023-05-07T08:49:47;2.05;;;1.95;;
635;SDS011;302;50.206;8.196;2023-05-07T08:52:13;1.90;;;1.80;;
635;SDS011;302;50.206;8.196;2023-05-07T08:54:38;2.03;;;1.90;;
635;SDS011;302;50.206;8.196;2023-05-07T08:57:04;2.00;;;1.80;;
635;SDS011;302;50.206;8.196;2023-05-07T08:59:29;2.20;;;2.10;;
635;SDS011;302;50.206;8.196;2023-05-07T09:01:54;2.50;;;2.30;;
635;SDS011;302;50.206;8.196;2023-05-07T09:04:20;2.17;;;2.03;;
635;SDS011;302;50.206;8.196;2023-05-07T09:06:45;1.80;;;1.70;;
635;SDS011;302;50.206;8.196;2023-05-07T09:09:14;2.50;;;2.10;;
635;SDS011;302;50.206;8.196;2023-05-07T09:11:42;2.42;;;2.22;;
635;SDS011;302;50.206;8.196;2023-05-07T09:14:07;2.43;;;2.30;;
635;SDS011;302;50.206;8.196;2023-05-07T09:16:32;2.10;;;1.90;;
635;SDS011;302;50.206;8.196;2023-05-07T09:18:58;2.35;;;2.15;;
635;SDS011;302;50.206;8.196;2023-05-07T09:21:24;1.93;;;1.83;;
635;SDS011;302;50.206;8.196;2023-05-07T09:23:54;2.47;;;2.27;;
635;SDS011;302;50.206;8.196;2023-05-07T09:26:22;2.07;;;1.87;;
635;SDS011;302;50.206;8.196;2023-05-07T09:28:48;2.10;;;2.00;;
635;SDS011;302;50.206;8.196;2023-05-07T09:31:13;2.50;;;2.30;;
635;SDS011;302;50.206;8.196;2023-05-07T09:33:39;2.17;;;2.07;;
635;SDS011;302;50.206;8.196;2023-05-07T09:36:04;3.20;;;2.20;;
635;SDS011;302;50.206;8.196;2023-05-07T09:38:30;2.27;;;2.17;;
635;SDS011;302;50.206;8.196;2023-05-07T09:41:02;2.50;;;2.30;;
635;SDS011;302;50.206;8.196;2023-05-07T09:43:31;1.90;;;1.80;;
635;SDS011;302;50.206;8.196;2023-05-07T09:45:56;2.20;;;2.00;;
635;SDS011;302;50.206;8.196;2023-05-07T09:48:22;2.00;;;1.83;;
635;SDS011;302;50.206;8.196;2023-05-07T09:50:51;2.07;;;1.97;;
635;SDS011;302;50.206;8.196;2023-05-07T09:53:20;2.60;;;2.40;;
635;SDS011;302;50.206;8.196;2023-05-07T09:55:46;1.90;;;1.77;;
635;SDS011;302;50.206;8.196;2023-05-07T09:58:12;2.50;;;2.30;;
635;SDS011;302;50.206;8.196;2023-05-07T10:00:37;1.80;;;1.70;;
635;SDS011;302;50.206;8.196;2023-05-07T10:03:02;2.40;;;1.90;;
635;SDS011;302;50.206;8.196;2023-05-07T10:05:28;2.50;;;2.30;;
635;SDS011;302;50.206;8.196;2023-05-07T10:07:53;2.20;;;2.10;;
635;SDS011;302;50.206;8.196;2023-05-07T10:10:18;2.20;;;1.80;;
635;SDS011;302;50.206;8.196;2023-05-07T10:12:44;2.20;;;2.10;;
635;SDS011;302;50.206;8.196;2023-05-07T10:15:10;2.00;;;1.80;;
635;SDS011;302;50.206;8.196;2023-05-07T10:17:39;1.90;;;1.80;;
635;SDS011;302;50.206;8.196;2023-05-07T10:20:04;1.90;;;1.80;;
635;SDS011;302;50.206;8.196;2023-05-07T10:22:31;1.83;;;1.73;;
635;SDS011;302;50.206;8.196;2023-05-07T10:24:57;2.23;;;1.80;;
635;SDS011;302;50.206;8.196;2023-05-07T10:27:24;2.27;;;2.07;;
635;SDS011;302;50.206;8.196;2023-05-07T10:32:35;2.13;;;1.70;;
635;SDS011;302;50.206;8.196;2023-05-07T10:35:02;2.30;;;2.00;;
635;SDS011;302;50.206;8.196;2023-05-07T10:37:28;1.50;;;1.40;;
635;SDS011;302;50.206;8.196;2023-05-07T10:39:54;1.60;;;1.50;;
635;SDS011;302;50.206;8.196;2023-05-07T10:42:19;2.20;;;2.00;;
635;SDS011;302;50.206;8.196;2023-05-07T10:44:44;1.93;;;1.70;;
635;SDS011;302;50.206;8.196;2023-05-07T10:47:10;1.93;;;1.63;;
635;SDS011;302;50.206;8.196;2023-05-07T10:49:36;1.80;;;1.70;;
635;SDS011;302;50.206;8.196;2023-05-07T10:52:11;1.70;;;1.60;;
635;SDS011;302;50.206;8.196;2023-05-07T10:54:37;1.73;;;1.60;;
635;SDS011;302;50.206;8.196;2023-05-07T10:59:47;2.40;;;1.30;;
635;SDS011;302;50.206;8.196;2023-05-07T11:02:13;1.70;;;1.60;;
635;SDS011;302;50.206;8.196;2023-05-07T11:04:40;2.00;;;1.70;;
635;SDS011;302;50.206;8.196;2023-05-07T11:12:15;1.70;;;1.60;;
635;SDS011;302;50.206;8.196;2023-05-07T11:17:06;2.23;;;2.03;;
635;SDS011;302;50.206;8.196;2023-05-07T11:25:18;3.67;;;1.90;;
635;SDS011;302;50.206;8.196;2023-05-07T11:27:44;2.03;;;1.93;;
635;SDS011;302;50.206;8.196;2023-05-07T11:30:09;1.50;;;1.40;;
635;SDS011;302;50.206;8.196;2023-05-07T11:32:35;1.50;;;1.40;;
635;SDS011;302;50.206;8.196;2023-05-07T11:35:00;1.43;;;1.30;;
635;SDS011;302;50.206;8.196;2023-05-07T11:37:26;2.37;;;1.70;;
635;SDS011;302;50.206;8.196;2023-05-07T11:40:02;1.57;;;1.47;;
635;SDS011;302;50.206;8.196;2023-05-07T11:42:28;1.50;;;1.30;;
635;SDS011;302;50.206;8.196;2023-05-07T11:44:53;1.70;;;1.60;;
635;SDS011;302;50.206;8.196;2023-05-07T11:47:19;2.13;;;1.60;;
635;SDS011;302;50.206;8.196;2023-05-07T11:49:47;1.70;;;1.60;;
635;SDS011;302;50.206;8.196;2023-05-07T11:52:13;2.03;;;1.93;;
635;SDS011;302;50.206;8.196;2023-05-07T11:54:38;3.63;;;2.13;;
635;SDS011;302;50.206;8.196;2023-05-07T11:57:03;3.37;;;2.50;;
635;SDS011;302;50.206;8.196;2023-05-07T11:59:29;2.30;;;2.10;;
635;SDS011;302;50.206;8.196;2023-05-07T12:01:57;2.22;;;2.03;;
635;SDS011;302;50.206;8.196;2023-05-07T12:04:22;2.33;;;2.13;;
635;SDS011;302;50.206;8.196;2023-05-07T12:06:47;2.10;;;1.90;;
635;SDS011;302;50.206;8.196;2023-05-07T12:09:12;1.92;;;1.83;;
635;SDS011;302;50.206;8.196;2023-05-07T12:11:38;3.97;;;2.40;;
635;SDS011;302;50.206;8.196;2023-05-07T12:14:04;2.27;;;2.17;;
635;SDS011;302;50.206;8.196;2023-05-07T12:16:30;2.10;;;2.00;;
635;SDS011;302;50.206;8.196;2023-05-07T12:18:55;2.20;;;2.10;;
635;SDS011;302;50.206;8.196;2023-05-07T12:21:21;2.53;;;2.33;;
635;SDS011;302;50.206;8.196;2023-05-07T12:23:46;2.90;;;2.23;;
635;SDS011;302;50.206;8.196;2023-05-07T12:26:12;2.30;;;2.17;;
635;SDS011;302;50.206;8.196;2023-05-07T12:28:37;2.27;;;2.00;;
635;SDS011;302;50.206;8.196;2023-05-07T12:31:03;2.37;;;2.20;;
635;SDS011;302;50.206;8.196;2023-05-07T12:33:29;2.20;;;2.00;;
635;SDS011;302;50.206;8.196;2023-05-07T12:35:55;2.60;;;2.40;;
635;SDS011;302;50.206;8.196;2023-05-07T12:38:21;1.70;;;1.60;;
635;SDS011;302;50.206;8.196;2023-05-07T12:40:47;2.00;;;1.90;;
635;SDS011;302;50.206;8.196;2023-05-07T12:43:16;2.30;;;2.10;;
635;SDS011;302;50.206;8.196;2023-05-07T12:45:42;2.70;;;2.00;;
635;SDS011;302;50.206;8.196;2023-05-07T12:48:09;2.43;;;1.87;;
635;SDS011;302;50.206;8.196;2023-05-07T12:50:34;2.40;;;2.20;;
635;SDS011;302;50.206;8.196;2023-05-07T12:53:00;2.00;;;1.90;;
635;SDS011;302;50.206;8.196;2023-05-07T12:55:25;2.90;;;2.70;;
635;SDS011;302;50.206;8.196;2023-05-07T12:57:51;2.10;;;2.00;;
635;SDS011;302;50.206;8.196;2023-05-07T13:00:17;2.30;;;2.20;;
635;SDS011;302;50.206;8.196;2023-05-07T13:02:43;2.50;;;2.30;;
635;SDS011;302;50.206;8.196;2023-05-07T13:05:09;1.70;;;1.60;;
635;SDS011;302;50.206;8.196;2023-05-07T13:07:34;2.30;;;2.10;;
635;SDS011;302;50.206;8.196;2023-05-07T13:09:59;2.50;;;2.30;;
635;SDS011;302;50.206;8.196;2023-05-07T13:12:24;2.37;;;2.10;;
635;SDS011;302;50.206;8.196;2023-05-07T13:14:50;2.88;;;2.33;;
635;SDS011;302;50.206;8.196;2023-05-07T13:17:15;2.40;;;2.20;;
635;SDS011;302;50.206;8.196;2023-05-07T13:19:40;2.60;;;2.40;;
635;SDS011;302;50.206;8.196;2023-05-07T13:22:05;2.20;;;2.10;;
635;SDS011;302;50.206;8.196;2023-05-07T13:24:30;2.15;;;2.05;;
635;SDS011;302;50.206;8.196;2023-05-07T13:26:55;2.60;;;2.40;;
635;SDS011;302;50.206;8.196;2023-05-07T13:29:21;2.70;;;2.50;;
635;SDS011;302;50.206;8.196;2023-05-07T13:31:53;2.43;;;2.23;;
635;SDS011;302;50.206;8.196;2023-05-07T13:34:18;2.65;;;2.45;;
635;SDS011;302;50.206;8.196;2023-05-07T13:36:43;2.60;;;2.47;;
635;SDS011;302;50.206;8.196;2023-05-07T13:39:08;3.10;;;2.80;;
635;SDS011;302;50.206;8.196;2023-05-07T13:41:34;2.50;;;2.30;;
635;SDS011;302;50.206;8.196;2023-05-07T13:43:59;2.27;;;2.00;;
635;SDS011;302;50.206;8.196;2023-05-07T13:46:24;2.50;;;2.30;;
635;SDS011;302;50.206;8.196;2023-05-07T13:48:49;2.40;;;2.30;;
635;SDS011;302;50.206;8.196;2023-05-07T13:51:15;2.70;;;2.50;;
635;SDS011;302;50.206;8.196;2023-05-07T13:53:40;3.78;;;2.47;;
635;SDS011;302;50.206;8.196;2023-05-07T13:56:05;2.45;;;2.30;;
635;SDS011;302;50.206;8.196;2023-05-07T13:58:30;2.63;;;2.43;;
635;SDS011;302;50.206;8.196;2023-05-07T14:00:56;2.60;;;2.40;;
635;SDS011;302;50.206;8.196;2023-05-07T14:03:21;2.55;;;2.17;;
635;SDS011;302;50.206;8.196;2023-05-07T14:05:46;2.70;;;2.50;;
635;SDS011;302;50.206;8.196;2023-05-07T14:08:11;2.23;;;2.13;;
635;SDS011;302;50.206;8.196;2023-05-07T14:10:38;2.60;;;2.40;;
635;SDS011;302;50.206;8.196;2023-05-07T14:13:03;2.20;;;2.10;;
635;SDS011;302;50.206;8.196;2023-05-07T14:15:29;2.93;;;2.73;;
635;SDS011;302;50.206;8.196;2023-05-07T14:17:54;2.63;;;2.43;;
635;SDS011;302;50.206;8.196;2023-05-07T14:20:20;2.10;;;2.00;;
635;SDS011;302;50.206;8.196;2023-05-07T14:22:45;2.23;;;2.13;;
635;SDS011;302;50.206;8.196;2023-05-07T14:25:10;2.93;;;2.63;;
635;SDS011;302;50.206;8.196;2023-05-07T14:27:35;2.40;;;2.20;;
635;SDS011;302;50.206;8.196;2023-05-07T14:30:00;2.33;;;2.13;;
635;SDS011;302;50.206;8.196;2023-05-07T14:32:26;2.63;;;2.43;;
635;SDS011;302;50.206;8.196;2023-05-07T14:34:51;2.13;;;2.03;;
635;SDS011;302;50.206;8.196;2023-05-07T14:37:16;2.63;;;2.43;;
635;SDS011;302;50.206;8.196;2023-05-07T14:39:41;2.30;;;2.20;;
635;SDS011;302;50.206;8.196;2023-05-07T14:42:06;2.30;;;2.20;;
635;SDS011;302;50.206;8.196;2023-05-07T14:44:33;2.37;;;2.17;;
635;SDS011;302;50.206;8.196;2023-05-07T14:46:58;2.70;;;2.50;;
635;SDS011;302;50.206;8.196;2023-05-07T14:49:23;2.63;;;2.42;;
635;SDS011;302;50.206;8.196;2023-05-07T14:51:48;2.57;;;2.37;;
635;SDS011;302;50.206;8.196;2023-05-07T14:54:14;2.70;;;2.50;;
635;SDS011;302;50.206;8.196;2023-05-07T14:56:39;2.50;;;2.30;;
635;SDS011;302;50.206;8.196;2023-05-07T14:59:04;2.30;;;2.20;;
635;SDS011;302;50.206;8.196;2023-05-07T15:01:30;2.83;;;2.63;;
635;SDS011;302;50.206;8.196;2023-05-07T15:03:55;3.47;;;2.50;;
635;SDS011;302;50.206;8.196;2023-05-07T15:06:20;2.93;;;2.73;;
635;SDS011;302;50.206;8.196;2023-05-07T15:08:46;2.47;;;2.37;;
635;SDS011;302;50.206;8.196;2023-05-07T15:11:11;2.60;;;2.40;;
635;SDS011;302;50.206;8.196;2023-05-07T15:13:36;2.70;;;2.50;;
635;SDS011;302;50.206;8.196;2023-05-07T15:16:01;2.60;;;2.40;;
635;SDS011;302;50.206;8.196;2023-05-07T15:18:26;2.77;;;2.57;;
635;SDS011;302;50.206;8.196;2023-05-07T15:20:51;2.90;;;2.70;;
635;SDS011;302;50.206;8.196;2023-05-07T15:23:17;2.87;;;2.67;;
635;SDS011;302;50.206;8.196;2023-05-07T15:25:42;2.60;;;2.40;;
635;SDS011;302;50.206;8.196;2023-05-07T15:28:07;2.75;;;2.55;;
635;SDS011;302;50.206;8.196;2023-05-07T15:30:32;3.23;;;2.93;;
635;SDS011;302;50.206;8.196;2023-05-07T15:32:58;2.70;;;2.50;;
635;SDS011;302;50.206;8.196;2023-05-07T15:35:23;3.13;;;2.93;;
635;SDS011;302;50.206;8.196;2023-05-07T15:37:50;3.10;;;2.73;;
635;SDS011;302;50.206;8.196;2023-05-07T15:40:15;2.70;;;2.50;;
635;SDS011;302;50.206;8.196;2023-05-07T15:42:41;2.80;;;2.60;;
635;SDS011;302;50.206;8.196;2023-05-07T15:45:06;3.00;;;2.80;;
635;SDS011;302;50.206;8.196;2023-05-07T15:47:32;3.10;;;2.90;;
635;SDS011;302;50.206;8.196;2023-05-07T15:49:57;2.53;;;2.33;;
635;SDS011;302;50.206;8.196;2023-05-07T15:52:22;3.00;;;2.80;;